createdAt,value
2023-01-08T00:00:35.287Z,55
2023-01-08T00:02:15.067Z,55
2023-01-08T00:03:54.814Z,55
2023-01-08T00:05:34.573Z,55
2023-01-08T00:07:14.346Z,55
2023-01-08T00:08:54.122Z,55
2023-01-08T00:10:33.875Z,55
2023-01-08T00:12:13.648Z,55
2023-01-08T00:13:53.395Z,55
2023-01-08T00:15:33.174Z,55
2023-01-08T00:17:12.938Z,55
2023-01-08T00:18:52.706Z,55
2023-01-08T00:20:32.444Z,55
2023-01-08T00:22:12.234Z,55
2023-01-08T00:23:51.987Z,55
2023-01-08T00:25:31.747Z,55
2023-01-08T00:27:11.511Z,55
2023-01-08T00:28:51.269Z,54
2023-01-08T00:30:31.040Z,55
2023-01-08T00:32:10.820Z,55
2023-01-08T00:33:50.585Z,55
2023-01-08T00:35:30.321Z,55
2023-01-08T00:37:10.092Z,54
2023-01-08T00:38:49.880Z,55
2023-01-08T00:40:29.615Z,55
2023-01-08T00:42:09.442Z,54
2023-01-08T00:43:49.157Z,55
2023-01-08T00:45:29.011Z,55
2023-01-08T00:47:08.690Z,55
2023-01-08T00:48:48.432Z,55
2023-01-08T00:50:28.208Z,55
2023-01-08T00:53:47.733Z,54
2023-01-08T00:55:27.492Z,55
2023-01-08T00:57:07.262Z,55
2023-01-08T00:58:47.045Z,54
2023-01-08T01:00:26.774Z,54
2023-01-08T01:02:06.558Z,54
2023-01-08T01:03:46.323Z,54
2023-01-08T01:05:26.092Z,54
2023-01-08T01:07:05.828Z,54
2023-01-08T01:08:45.606Z,54
2023-01-08T01:10:25.369Z,54
2023-01-08T01:12:05.155Z,54
2023-01-08T01:13:44.896Z,54
2023-01-08T01:15:24.657Z,54
2023-01-08T01:17:04.427Z,54
2023-01-08T01:18:44.209Z,54
2023-01-08T01:20:23.953Z,54
2023-01-08T01:22:03.726Z,53
2023-01-08T01:23:43.477Z,54
2023-01-08T01:25:23.236Z,54
2023-01-08T01:27:03.005Z,54
2023-01-08T01:28:42.784Z,54
2023-01-08T01:30:22.531Z,54
2023-01-08T01:32:02.395Z,54
2023-01-08T01:33:42.069Z,54
2023-01-08T01:35:21.826Z,54
2023-01-08T01:37:01.586Z,54
2023-01-08T01:38:41.347Z,54
2023-01-08T01:40:21.117Z,54
2023-01-08T01:42:00.890Z,54
2023-01-08T01:43:40.654Z,54
2023-01-08T01:47:00.174Z,54
2023-01-08T01:48:39.928Z,54
2023-01-08T01:51:59.471Z,53
2023-01-08T01:53:39.254Z,53
2023-01-08T01:55:18.982Z,53
2023-01-08T01:56:58.753Z,53
2023-01-08T01:58:38.518Z,53
2023-01-08T02:00:18.299Z,53
2023-01-08T02:01:58.064Z,53
2023-01-08T02:03:37.807Z,53
2023-01-08T02:05:17.584Z,53
2023-01-08T02:06:57.336Z,54
2023-01-08T02:08:37.179Z,53
2023-01-08T02:10:16.874Z,53
2023-01-08T02:11:56.658Z,53
2023-01-08T02:13:36.389Z,53
2023-01-08T02:15:16.164Z,53
2023-01-08T02:16:55.930Z,53
2023-01-08T02:18:35.682Z,53
2023-01-08T02:20:15.455Z,53
2023-01-08T02:21:55.238Z,53
2023-01-08T02:23:34.982Z,53
2023-01-08T02:25:14.750Z,53
2023-01-08T02:26:54.511Z,53
2023-01-08T02:28:34.276Z,53
2023-01-08T02:30:14.038Z,53
2023-01-08T02:31:53.792Z,53
2023-01-08T02:33:33.566Z,53
2023-01-08T02:35:13.323Z,53
2023-01-08T02:36:53.073Z,53
2023-01-08T02:38:32.849Z,53
2023-01-08T02:40:12.609Z,53
2023-01-08T02:41:52.384Z,53
2023-01-08T02:43:32.138Z,53
2023-01-08T02:45:12.011Z,53
2023-01-08T02:46:51.668Z,53
2023-01-08T02:48:31.436Z,53
2023-01-08T02:50:11.201Z,53
2023-01-08T02:51:50.978Z,53
2023-01-08T02:53:30.728Z,53
2023-01-08T02:56:50.246Z,53
2023-01-08T02:58:30.028Z,53
2023-01-08T03:00:09.780Z,53
2023-01-08T03:01:49.557Z,53
2023-01-08T03:03:29.309Z,53
2023-01-08T03:05:09.079Z,53
2023-01-08T03:06:48.848Z,53
2023-01-08T03:08:28.631Z,53
2023-01-08T03:10:08.391Z,53
2023-01-08T03:13:27.891Z,53
2023-01-08T03:15:07.659Z,52
2023-01-08T03:16:47.425Z,53
2023-01-08T03:18:27.186Z,53
2023-01-08T03:20:06.939Z,52
2023-01-08T03:21:46.716Z,52
2023-01-08T03:23:26.461Z,52
2023-01-08T03:25:06.246Z,52
2023-01-08T03:26:45.995Z,52
2023-01-08T03:28:25.752Z,52
2023-01-08T03:30:05.588Z,52
2023-01-08T03:31:45.311Z,52
2023-01-08T03:33:25.070Z,52
2023-01-08T03:35:04.824Z,52
2023-01-08T03:36:44.585Z,52
2023-01-08T03:38:24.352Z,52
2023-01-08T03:40:04.128Z,52
2023-01-08T03:41:43.896Z,52
2023-01-08T03:43:23.632Z,52
2023-01-08T03:45:03.400Z,52
2023-01-08T03:46:43.158Z,52
2023-01-08T03:48:22.951Z,52
2023-01-08T03:50:02.682Z,52
2023-01-08T03:51:42.488Z,52
2023-01-08T03:53:22.221Z,52
2023-01-08T03:55:01.990Z,52
2023-01-08T03:56:41.742Z,52
2023-01-08T03:58:21.527Z,52
2023-01-08T04:00:01.286Z,52
2023-01-08T04:03:20.803Z,52
2023-01-08T04:05:00.561Z,52
2023-01-08T04:06:40.331Z,52
2023-01-08T04:08:20.101Z,51
2023-01-08T04:09:59.873Z,52
2023-01-08T04:11:39.626Z,52
2023-01-08T04:13:19.380Z,51
2023-01-08T04:14:59.152Z,51
2023-01-08T04:16:38.909Z,51
2023-01-08T04:18:18.674Z,52
2023-01-08T04:19:58.440Z,52
2023-01-08T04:21:38.217Z,52
2023-01-08T04:23:17.980Z,52
2023-01-08T04:26:37.509Z,51
2023-01-08T04:28:17.268Z,52
2023-01-08T04:29:57.036Z,52
2023-01-08T04:31:36.798Z,52
2023-01-08T04:33:16.555Z,52
2023-01-08T04:34:56.312Z,52
2023-01-08T04:36:36.092Z,51
2023-01-08T04:38:15.854Z,51
2023-01-08T04:39:55.609Z,51
2023-01-08T04:41:35.376Z,51
2023-01-08T04:43:15.160Z,51
2023-01-08T04:44:54.906Z,51
2023-01-08T04:46:34.667Z,51
2023-01-08T04:48:14.424Z,51
2023-01-08T04:49:54.187Z,51
2023-01-08T04:51:33.956Z,51
2023-01-08T04:53:13.725Z,51
2023-01-08T04:54:53.488Z,50
2023-01-08T04:56:33.269Z,51
2023-01-08T04:58:13.021Z,51
2023-01-08T04:59:52.785Z,51
2023-01-08T05:01:32.553Z,51
2023-01-08T05:03:12.292Z,51
2023-01-08T05:04:52.078Z,51
2023-01-08T05:06:31.841Z,51
2023-01-08T05:08:11.584Z,51
2023-01-08T05:09:51.380Z,51
2023-01-08T05:11:31.153Z,51
2023-01-08T05:13:10.900Z,51
2023-01-08T05:14:50.664Z,51
2023-01-08T05:16:30.408Z,51
2023-01-08T05:18:10.179Z,51
2023-01-08T05:19:49.945Z,51
2023-01-08T05:21:29.724Z,51
2023-01-08T05:23:09.470Z,51
2023-01-08T05:24:49.241Z,51
2023-01-08T05:26:29.005Z,51
2023-01-08T05:28:08.754Z,51
2023-01-08T05:29:48.524Z,51
2023-01-08T05:31:28.296Z,51
2023-01-08T05:33:08.050Z,51
2023-01-08T05:34:47.824Z,51
2023-01-08T05:36:27.566Z,51
2023-01-08T05:38:07.361Z,51
2023-01-08T05:39:47.117Z,51
2023-01-08T05:41:26.871Z,51
2023-01-08T05:43:06.636Z,50
2023-01-08T05:44:46.417Z,50
2023-01-08T05:46:26.162Z,51
2023-01-08T05:48:05.927Z,51
2023-01-08T05:49:45.689Z,51
2023-01-08T05:51:25.453Z,51
2023-01-08T05:53:05.224Z,51
2023-01-08T05:56:24.748Z,51
2023-01-08T05:58:04.505Z,51
2023-01-08T05:59:44.274Z,51
2023-01-08T06:01:24.048Z,51
2023-01-08T06:03:03.794Z,51
2023-01-08T06:06:23.324Z,50
2023-01-08T06:08:03.087Z,51
2023-01-08T06:09:42.865Z,51
2023-01-08T06:11:22.661Z,50
2023-01-08T06:13:02.413Z,50
2023-01-08T06:14:42.148Z,50
2023-01-08T06:16:21.915Z,51
2023-01-08T06:18:01.691Z,50
2023-01-08T06:19:41.455Z,51
2023-01-08T06:21:21.208Z,50
2023-01-08T06:23:00.959Z,50
2023-01-08T06:24:40.758Z,50
2023-01-08T06:26:20.488Z,50
2023-01-08T06:28:00.270Z,50
2023-01-08T06:29:40.056Z,51
2023-01-08T06:31:19.797Z,50
2023-01-08T06:32:59.548Z,50
2023-01-08T06:34:39.312Z,50
2023-01-08T06:36:19.065Z,50
2023-01-08T06:37:58.827Z,50
2023-01-08T06:39:38.592Z,50
2023-01-08T06:41:18.388Z,50
2023-01-08T06:42:58.127Z,50
2023-01-08T06:44:37.887Z,50
2023-01-08T06:46:17.659Z,50
2023-01-08T06:47:57.420Z,50
2023-01-08T06:49:37.189Z,50
2023-01-08T06:51:16.965Z,50
2023-01-08T06:52:56.706Z,50
2023-01-08T06:54:36.486Z,50
2023-01-08T06:56:16.241Z,50
2023-01-08T06:57:56.012Z,51
2023-01-08T06:59:35.772Z,50
2023-01-08T07:01:15.543Z,50
2023-01-08T07:02:55.323Z,50
2023-01-08T07:04:35.073Z,50
2023-01-08T07:06:14.831Z,50
2023-01-08T07:07:54.587Z,50
2023-01-08T07:09:34.344Z,50
2023-01-08T07:11:14.137Z,50
2023-01-08T07:12:53.874Z,50
2023-01-08T07:14:33.634Z,50
2023-01-08T07:16:13.406Z,50
2023-01-08T07:17:53.184Z,51
2023-01-08T07:19:32.933Z,51
2023-01-08T07:21:12.721Z,50
2023-01-08T07:22:52.478Z,51
2023-01-08T07:24:32.224Z,51
2023-01-08T07:26:11.985Z,51
2023-01-08T07:27:51.798Z,51
2023-01-08T07:29:31.531Z,51
2023-01-08T07:31:11.322Z,51
2023-01-08T07:32:51.055Z,51
2023-01-08T07:34:30.822Z,51
2023-01-08T07:36:10.579Z,51
2023-01-08T07:37:50.343Z,51
2023-01-08T07:39:30.108Z,51
2023-01-08T07:41:09.964Z,51
2023-01-08T07:42:49.635Z,50
2023-01-08T07:44:29.392Z,52
2023-01-08T07:46:09.154Z,50
2023-01-08T07:47:48.925Z,51
2023-01-08T07:49:28.690Z,51
2023-01-08T07:51:08.452Z,51
2023-01-08T07:52:48.206Z,52
2023-01-08T07:54:27.970Z,52
2023-01-08T07:56:07.751Z,52
2023-01-08T07:57:47.519Z,52
2023-01-08T07:59:27.324Z,51
2023-01-08T08:01:07.078Z,52
2023-01-08T08:02:46.797Z,52
2023-01-08T08:04:26.608Z,52
2023-01-08T08:06:06.325Z,52
2023-01-08T08:07:46.087Z,52
2023-01-08T08:09:25.872Z,52
2023-01-08T08:11:05.709Z,53
2023-01-08T08:12:45.387Z,52
2023-01-08T08:14:25.162Z,52
2023-01-08T08:16:04.919Z,53
2023-01-08T08:17:44.666Z,52
2023-01-08T08:19:24.436Z,52
2023-01-08T08:21:04.191Z,52
2023-01-08T08:22:43.970Z,52
2023-01-08T08:24:23.771Z,53
2023-01-08T08:26:03.514Z,52
2023-01-08T08:27:43.245Z,51
2023-01-08T08:29:23.012Z,52
2023-01-08T08:31:02.791Z,52
2023-01-08T08:32:42.610Z,53
2023-01-08T08:34:22.314Z,53
2023-01-08T08:36:02.070Z,53
2023-01-08T08:37:41.834Z,53
2023-01-08T08:39:21.596Z,54
2023-01-08T08:41:01.443Z,54
2023-01-08T08:42:41.191Z,55
2023-01-08T08:44:20.898Z,55
2023-01-08T08:46:00.657Z,56
2023-01-08T08:47:40.413Z,57
2023-01-08T08:49:20.183Z,58
2023-01-08T08:50:59.971Z,60
2023-01-08T08:52:39.748Z,61
2023-01-08T08:54:19.482Z,62
2023-01-08T08:55:59.226Z,62
2023-01-08T08:57:38.999Z,61
2023-01-08T08:59:18.766Z,62
2023-01-08T09:00:58.570Z,59
2023-01-08T09:02:38.289Z,59
2023-01-08T09:05:57.819Z,58
2023-01-08T09:07:37.578Z,58
2023-01-08T09:09:17.353Z,58
2023-01-08T09:10:57.151Z,60
2023-01-08T09:12:36.899Z,60
2023-01-08T09:14:16.669Z,59
2023-01-08T09:15:56.411Z,60
2023-01-08T09:17:36.201Z,61
2023-01-08T09:19:15.939Z,62
2023-01-08T09:20:55.746Z,63
2023-01-08T09:22:35.464Z,63
2023-01-08T09:24:15.269Z,64
2023-01-08T09:25:55.027Z,63
2023-01-08T09:27:34.757Z,62
2023-01-08T09:29:14.581Z,62
2023-01-08T09:30:54.275Z,62
2023-01-08T09:32:34.040Z,61
2023-01-08T09:34:13.813Z,61
2023-01-08T09:35:53.571Z,61
2023-01-08T09:37:33.334Z,62
2023-01-08T09:39:13.151Z,61
2023-01-08T09:42:32.636Z,61
2023-01-08T09:44:12.391Z,62
2023-01-08T09:45:52.175Z,63
2023-01-08T09:47:31.923Z,62
2023-01-08T09:49:11.672Z,63
2023-01-08T09:50:51.445Z,63
2023-01-08T09:52:31.222Z,63
2023-01-08T09:54:11.089Z,62
2023-01-08T09:55:50.741Z,62
2023-01-08T09:57:30.491Z,61
2023-01-08T09:59:10.325Z,63
2023-01-08T10:00:50.047Z,61
2023-01-08T10:02:29.801Z,60
2023-01-08T10:04:09.561Z,60
2023-01-08T10:05:49.314Z,61
2023-01-08T10:07:29.160Z,61
2023-01-08T10:09:08.839Z,63
2023-01-08T10:10:48.616Z,63
2023-01-08T10:12:28.379Z,63
2023-01-08T10:14:08.142Z,64
2023-01-08T10:15:48.039Z,66
2023-01-08T10:17:27.670Z,66
2023-01-08T10:19:07.435Z,67
2023-01-08T10:20:47.209Z,67
2023-01-08T10:22:26.948Z,66
2023-01-08T10:24:06.729Z,65
2023-01-08T10:25:46.491Z,62
2023-01-08T10:27:26.271Z,61
2023-01-08T10:29:06.019Z,61
2023-01-08T10:30:45.798Z,61
2023-01-08T10:32:25.548Z,60
2023-01-08T10:34:05.305Z,60
2023-01-08T10:35:45.073Z,60
2023-01-08T10:37:24.838Z,60
2023-01-08T10:39:04.607Z,59
2023-01-08T10:40:44.350Z,59
2023-01-08T10:42:24.142Z,59
2023-01-08T10:44:03.884Z,60
2023-01-08T10:45:43.708Z,60
2023-01-08T10:47:23.442Z,62
2023-01-08T10:49:03.180Z,62
2023-01-08T10:50:42.939Z,65
2023-01-08T10:52:22.721Z,65
2023-01-08T10:54:02.476Z,67
2023-01-08T10:55:42.289Z,68
2023-01-08T10:57:21.993Z,68
2023-01-08T10:59:01.757Z,68
2023-01-08T11:00:41.543Z,68
2023-01-08T11:02:21.296Z,68
2023-01-08T11:04:01.069Z,68
2023-01-08T11:05:40.838Z,68
2023-01-08T11:07:20.589Z,68
2023-01-08T11:09:00.479Z,68
2023-01-08T11:10:40.121Z,68
2023-01-08T11:12:19.875Z,69
2023-01-08T11:13:59.645Z,66
2023-01-08T11:15:39.420Z,66
2023-01-08T11:17:19.171Z,66
2023-01-08T11:18:58.938Z,67
2023-01-08T11:20:38.773Z,70
2023-01-08T11:22:18.475Z,69
2023-01-08T11:23:58.366Z,71
2023-01-08T11:25:37.995Z,69
2023-01-08T11:27:17.756Z,67
2023-01-08T11:28:57.547Z,66
2023-01-08T11:30:37.280Z,66
2023-01-08T11:32:17.034Z,66
2023-01-08T11:33:56.894Z,65
2023-01-08T11:35:36.611Z,65
2023-01-08T11:37:16.339Z,65
2023-01-08T11:38:56.110Z,65
2023-01-08T11:40:35.887Z,65
2023-01-08T11:42:15.660Z,64
2023-01-08T11:45:35.168Z,65
2023-01-08T11:47:14.947Z,65
2023-01-08T11:48:54.694Z,66
2023-01-08T11:50:34.451Z,65
2023-01-08T11:52:14.233Z,67
2023-01-08T11:53:53.990Z,66
2023-01-08T11:55:33.736Z,66
2023-01-08T11:57:13.528Z,66
2023-01-08T11:58:53.268Z,66
2023-01-08T12:00:33.030Z,68
2023-01-08T12:02:12.795Z,69
2023-01-08T12:05:32.346Z,70
2023-01-08T12:07:12.075Z,71
2023-01-08T12:08:51.847Z,71
2023-01-08T12:10:31.635Z,72
2023-01-08T12:12:11.358Z,71
2023-01-08T12:13:51.145Z,71
2023-01-08T12:15:30.932Z,70
2023-01-08T12:17:10.663Z,69
2023-01-08T12:18:50.442Z,69
2023-01-08T12:20:30.207Z,69
2023-01-08T12:22:09.960Z,71
2023-01-08T12:23:49.717Z,71
2023-01-08T12:25:29.479Z,71
2023-01-08T12:27:09.257Z,72
2023-01-08T12:28:49.015Z,71
2023-01-08T12:30:28.780Z,71
2023-01-08T12:32:08.545Z,72
2023-01-08T12:33:48.320Z,72
2023-01-08T12:35:28.085Z,73
2023-01-08T12:37:07.831Z,74
2023-01-08T12:38:47.628Z,73
2023-01-08T12:40:27.362Z,72
2023-01-08T12:42:07.118Z,73
2023-01-08T12:43:46.881Z,71
2023-01-08T12:45:26.652Z,70
2023-01-08T12:47:06.414Z,69
2023-01-08T12:48:46.186Z,69
2023-01-08T12:50:25.965Z,68
2023-01-08T12:52:05.712Z,68
2023-01-08T12:53:45.471Z,67
2023-01-08T12:55:25.233Z,66
2023-01-08T12:57:05.004Z,66
2023-01-08T12:58:44.832Z,66
2023-01-08T13:00:24.550Z,65
2023-01-08T13:02:04.295Z,65
2023-01-08T13:03:44.174Z,64
2023-01-08T13:05:23.829Z,64
2023-01-08T13:07:03.593Z,64
2023-01-08T13:08:43.345Z,64
2023-01-08T13:10:23.127Z,63
2023-01-08T13:12:02.877Z,64
2023-01-08T13:13:42.648Z,64
2023-01-08T13:15:22.483Z,64
2023-01-08T13:17:02.173Z,64
2023-01-08T13:18:41.969Z,65
2023-01-08T13:20:21.709Z,66
2023-01-08T13:22:01.578Z,65
2023-01-08T13:23:41.235Z,66
2023-01-08T13:25:21.013Z,64
2023-01-08T13:27:00.800Z,64
2023-01-08T13:28:40.506Z,64
2023-01-08T13:30:20.289Z,64
2023-01-08T13:32:00.049Z,64
2023-01-08T13:33:39.852Z,64
2023-01-08T13:35:19.578Z,63
2023-01-08T13:36:59.343Z,63
2023-01-08T13:38:39.093Z,63
2023-01-08T13:40:18.864Z,63
2023-01-08T13:41:58.624Z,63
2023-01-08T13:43:38.388Z,62
2023-01-08T13:45:18.146Z,63
2023-01-08T13:46:57.915Z,62
2023-01-08T13:48:37.695Z,62
2023-01-08T13:50:17.454Z,62
2023-01-08T13:51:57.211Z,62
2023-01-08T13:53:36.960Z,62
2023-01-08T13:55:16.748Z,62
2023-01-08T13:56:56.516Z,61
2023-01-08T13:58:36.261Z,61
2023-01-08T14:00:16.024Z,62
2023-01-08T14:01:55.797Z,61
2023-01-08T14:03:35.570Z,60
2023-01-08T14:05:15.317Z,61
2023-01-08T14:06:55.085Z,61
2023-01-08T14:08:34.839Z,61
2023-01-08T14:10:14.618Z,60
2023-01-08T14:11:54.388Z,60
2023-01-08T14:13:34.141Z,61
2023-01-08T14:15:13.905Z,60
2023-01-08T14:16:53.665Z,60
2023-01-08T14:18:33.438Z,60
2023-01-08T14:20:13.189Z,60
2023-01-08T14:21:52.953Z,60
2023-01-08T14:23:32.724Z,60
2023-01-08T14:25:12.481Z,60
2023-01-08T14:26:52.267Z,59
2023-01-08T14:28:32.016Z,60
2023-01-08T14:30:11.786Z,60
2023-01-08T14:31:51.551Z,59
2023-01-08T14:33:31.318Z,59
2023-01-08T14:35:11.085Z,60
2023-01-08T14:36:50.857Z,59
2023-01-08T14:38:30.581Z,59
2023-01-08T14:40:10.376Z,58
2023-01-08T14:41:50.136Z,58
2023-01-08T14:43:29.966Z,59
2023-01-08T14:45:09.730Z,59
2023-01-08T14:46:49.457Z,58
2023-01-08T14:48:29.182Z,58
2023-01-08T14:50:08.941Z,58
2023-01-08T14:51:48.718Z,58
2023-01-08T14:53:28.480Z,58
2023-01-08T14:55:08.241Z,58
2023-01-08T14:56:48.006Z,58
2023-01-08T14:58:27.781Z,58
2023-01-08T15:00:07.552Z,58
2023-01-08T15:01:47.384Z,58
2023-01-08T15:03:27.043Z,58
2023-01-08T15:05:06.854Z,58
2023-01-08T15:06:46.585Z,58
2023-01-08T15:08:26.360Z,57
2023-01-08T15:10:06.145Z,57
2023-01-08T15:11:45.884Z,57
2023-01-08T15:13:25.750Z,57
2023-01-08T15:15:05.401Z,57
2023-01-08T15:16:45.165Z,57
2023-01-08T15:18:24.915Z,57
2023-01-08T15:20:04.704Z,57
2023-01-08T15:21:44.443Z,57
2023-01-08T15:23:24.218Z,57
2023-01-08T15:25:04.097Z,57
2023-01-08T15:26:43.854Z,57
2023-01-08T15:28:23.519Z,57
2023-01-08T15:30:03.295Z,57
2023-01-08T15:31:43.039Z,57
2023-01-08T15:33:22.849Z,56
2023-01-08T15:35:02.572Z,56
2023-01-08T15:36:42.329Z,56
2023-01-08T15:38:22.100Z,56
2023-01-08T15:40:01.849Z,56
2023-01-08T15:41:41.614Z,56
2023-01-08T15:43:21.399Z,56
2023-01-08T15:45:01.166Z,56
2023-01-08T15:46:40.915Z,56
2023-01-08T15:48:20.682Z,56
2023-01-08T15:50:00.519Z,56
2023-01-08T15:51:40.208Z,56
2023-01-08T15:53:19.975Z,56
2023-01-08T15:54:59.726Z,56
2023-01-08T15:56:39.505Z,56
2023-01-08T15:58:19.250Z,56
2023-01-08T15:59:59.023Z,56
2023-01-08T16:01:38.798Z,55
2023-01-08T16:03:18.636Z,55
2023-01-08T16:04:58.397Z,55
2023-01-08T16:06:38.083Z,55
2023-01-08T16:08:18.085Z,55
2023-01-08T16:09:57.759Z,55
2023-01-08T16:11:37.375Z,55
2023-01-08T16:13:17.146Z,55
2023-01-08T16:14:57.085Z,55
2023-01-08T16:16:36.652Z,55
2023-01-08T16:18:16.425Z,55
2023-01-08T16:19:56.263Z,55
2023-01-08T16:21:35.960Z,55
2023-01-08T16:23:15.717Z,55
2023-01-08T16:24:55.490Z,55
2023-01-08T16:26:35.382Z,55
2023-01-08T16:28:15.064Z,55
2023-01-08T16:29:54.762Z,55
2023-01-08T16:31:34.531Z,55
2023-01-08T16:33:14.295Z,54
2023-01-08T16:34:54.060Z,55
2023-01-08T16:36:33.835Z,55
2023-01-08T16:38:13.591Z,55
2023-01-08T16:39:53.357Z,55
2023-01-08T16:41:33.115Z,55
2023-01-08T16:44:52.731Z,54
2023-01-08T16:46:32.401Z,54
2023-01-08T16:48:12.202Z,54
2023-01-08T16:49:51.927Z,55
2023-01-08T16:51:31.686Z,54
2023-01-08T16:53:11.464Z,54
2023-01-08T16:54:51.219Z,54
2023-01-08T16:56:30.989Z,54
2023-01-08T16:58:10.741Z,54
2023-01-08T16:59:50.538Z,54
2023-01-08T17:01:30.291Z,54
2023-01-08T17:03:10.051Z,54
2023-01-08T17:04:49.809Z,54
2023-01-08T17:06:29.670Z,54
2023-01-08T17:08:09.342Z,54
2023-01-08T17:09:49.102Z,54
2023-01-08T17:11:28.904Z,54
2023-01-08T17:13:08.641Z,54
2023-01-08T17:14:48.392Z,54
2023-01-08T17:16:28.152Z,54
2023-01-08T17:18:07.942Z,53
2023-01-08T17:19:47.675Z,53
2023-01-08T17:21:27.456Z,53
2023-01-08T17:23:07.219Z,53
2023-01-08T17:24:46.975Z,53
2023-01-08T17:26:26.748Z,53
2023-01-08T17:28:06.501Z,53
2023-01-08T17:29:46.421Z,53
2023-01-08T17:31:26.062Z,53
2023-01-08T17:33:05.788Z,53
2023-01-08T17:34:45.583Z,53
2023-01-08T17:36:25.344Z,53
2023-01-08T17:38:05.190Z,53
2023-01-08T17:39:45.026Z,53
2023-01-08T17:41:24.613Z,53
2023-01-08T17:43:04.385Z,53
2023-01-08T17:44:44.137Z,53
2023-01-08T17:46:23.906Z,52
2023-01-08T17:48:03.772Z,53
2023-01-08T17:49:43.590Z,53
2023-01-08T17:51:23.203Z,52
2023-01-08T17:53:02.982Z,53
2023-01-08T17:54:42.712Z,52
2023-01-08T17:56:22.521Z,52
2023-01-08T17:58:02.273Z,52
2023-01-08T17:59:42.242Z,52
2023-01-08T18:01:21.770Z,52
2023-01-08T18:03:01.554Z,52
2023-01-08T18:04:41.300Z,52
2023-01-08T18:06:21.062Z,52
2023-01-08T18:08:00.836Z,52
2023-01-08T18:09:40.611Z,52
2023-01-08T18:13:00.124Z,52
2023-01-08T18:14:39.892Z,52
2023-01-08T18:16:19.641Z,52
2023-01-08T18:17:59.413Z,52
2023-01-08T18:19:39.369Z,52
2023-01-08T18:21:18.973Z,52
2023-01-08T18:22:58.706Z,52
2023-01-08T18:24:38.473Z,52
2023-01-08T18:26:18.272Z,52
2023-01-08T18:27:58.011Z,52
2023-01-08T18:29:37.877Z,52
2023-01-08T18:31:17.519Z,52
2023-01-08T18:32:57.292Z,52
2023-01-08T18:34:37.133Z,52
2023-01-08T18:36:16.831Z,52
2023-01-08T18:37:56.606Z,52
2023-01-08T18:39:36.489Z,52
2023-01-08T18:41:16.118Z,52
2023-01-08T18:42:55.889Z,52
2023-01-08T18:44:35.739Z,51
2023-01-08T18:46:15.431Z,51
2023-01-08T18:47:55.181Z,51
2023-01-08T18:49:35.137Z,51
2023-01-08T18:51:14.818Z,52
2023-01-08T18:52:54.502Z,51
2023-01-08T18:54:34.233Z,51
2023-01-08T18:56:13.995Z,51
2023-01-08T18:57:53.755Z,51
2023-01-08T18:59:33.509Z,51
2023-01-08T19:01:13.289Z,51
2023-01-08T19:02:53.062Z,51
2023-01-08T19:04:32.807Z,51
2023-01-08T19:06:12.569Z,51
2023-01-08T19:07:52.330Z,51
2023-01-08T19:09:32.212Z,51
2023-01-08T19:11:11.858Z,51
2023-01-08T19:12:51.705Z,51
2023-01-08T19:14:31.430Z,51
2023-01-08T19:16:11.154Z,51
2023-01-08T19:17:50.961Z,51
2023-01-08T19:19:30.903Z,51
2023-01-08T19:21:10.450Z,51
2023-01-08T19:22:50.212Z,51
2023-01-08T19:24:29.963Z,51
2023-01-08T19:26:09.740Z,51
2023-01-08T19:27:49.508Z,51
2023-01-08T19:29:29.530Z,51
2023-01-08T19:31:09.103Z,50
2023-01-08T19:32:48.783Z,50
2023-01-08T19:34:28.559Z,51
2023-01-08T19:36:08.331Z,51
2023-01-08T19:37:48.210Z,51
2023-01-08T19:39:28.067Z,51
2023-01-08T19:41:07.615Z,51
2023-01-08T19:42:47.383Z,50
2023-01-08T19:44:27.144Z,51
2023-01-08T19:46:06.907Z,50
2023-01-08T19:47:46.695Z,50
2023-01-08T19:49:26.556Z,51
2023-01-08T19:51:06.184Z,51
2023-01-08T19:52:45.948Z,51
2023-01-08T19:54:25.729Z,51
2023-01-08T19:56:05.571Z,50
2023-01-08T19:57:45.256Z,51
2023-01-08T19:59:25.124Z,50
2023-01-08T20:01:04.770Z,50
2023-01-08T20:02:44.685Z,51
2023-01-08T20:04:24.293Z,50
2023-01-08T20:06:04.063Z,50
2023-01-08T20:07:43.844Z,50
2023-01-08T20:09:23.774Z,50
2023-01-08T20:11:03.377Z,50
2023-01-08T20:12:43.150Z,50
2023-01-08T20:14:22.933Z,50
2023-01-08T20:16:02.655Z,50
2023-01-08T20:17:42.413Z,50
2023-01-08T20:19:22.270Z,50
2023-01-08T20:21:01.941Z,50
2023-01-08T20:24:21.528Z,50
2023-01-08T20:26:01.319Z,50
2023-01-08T20:27:41.002Z,50
2023-01-08T20:29:20.781Z,50
2023-01-08T20:31:00.585Z,51
2023-01-08T20:32:40.287Z,50
2023-01-08T20:34:20.209Z,50
2023-01-08T20:35:59.830Z,50
2023-01-08T20:37:39.591Z,50
2023-01-08T20:39:19.377Z,50
2023-01-08T20:40:59.163Z,50
2023-01-08T20:42:38.877Z,50
2023-01-08T20:44:18.651Z,50
2023-01-08T20:45:58.403Z,50
2023-01-08T20:47:38.173Z,50
2023-01-08T20:49:18.005Z,50
2023-01-08T20:50:57.706Z,50
2023-01-08T20:52:37.461Z,50
2023-01-08T20:54:17.343Z,50
2023-01-08T20:55:56.989Z,50
2023-01-08T20:57:36.894Z,50
2023-01-08T20:59:16.552Z,50
2023-01-08T21:00:56.285Z,50
2023-01-08T21:02:36.043Z,50
2023-01-08T21:04:15.813Z,50
2023-01-08T21:05:55.565Z,50
2023-01-08T21:07:35.342Z,50
2023-01-08T21:09:15.107Z,50
2023-01-08T21:10:54.858Z,50
2023-01-08T21:12:34.629Z,50
2023-01-08T21:14:14.478Z,50
2023-01-08T21:15:54.249Z,50
2023-01-08T21:17:33.920Z,50
2023-01-08T21:19:13.840Z,50
2023-01-08T21:20:53.449Z,50
2023-01-08T21:22:33.302Z,50
2023-01-08T21:24:12.957Z,50
2023-01-08T21:25:52.739Z,50
2023-01-08T21:29:12.267Z,50
2023-01-08T21:30:52.030Z,50
2023-01-08T21:32:31.778Z,50
2023-01-08T21:34:11.549Z,50
2023-01-08T21:35:51.325Z,50
2023-01-08T21:37:31.104Z,50
2023-01-08T21:39:10.875Z,50
2023-01-08T21:40:50.609Z,50
2023-01-08T21:42:30.371Z,50
2023-01-08T21:44:10.135Z,50
2023-01-08T21:45:49.917Z,50
2023-01-08T21:47:29.671Z,50
2023-01-08T21:49:09.564Z,50
2023-01-08T21:50:49.185Z,50
2023-01-08T21:52:28.953Z,50
2023-01-08T21:54:08.732Z,50
2023-01-08T21:55:48.477Z,50
2023-01-08T21:57:28.237Z,49
2023-01-08T21:59:08.017Z,50
2023-01-08T22:02:27.542Z,50
2023-01-08T22:04:07.294Z,50
2023-01-08T22:05:47.067Z,50
2023-01-08T22:07:26.840Z,50
2023-01-08T22:09:06.668Z,50
2023-01-08T22:10:46.357Z,50
2023-01-08T22:12:26.121Z,49
2023-01-08T22:14:05.887Z,50
2023-01-08T22:15:45.649Z,50
2023-01-08T22:17:25.414Z,50
2023-01-08T22:19:05.184Z,50
2023-01-08T22:20:44.938Z,50
2023-01-08T22:22:24.706Z,50
2023-01-08T22:24:04.466Z,50
2023-01-08T22:25:44.232Z,50
2023-01-08T22:27:23.994Z,50
2023-01-08T22:29:03.761Z,50
2023-01-08T22:30:43.529Z,50
2023-01-08T22:32:23.308Z,50
2023-01-08T22:34:03.049Z,49
2023-01-08T22:35:42.811Z,50
2023-01-08T22:37:22.593Z,50
2023-01-08T22:39:02.364Z,50
2023-01-08T22:40:42.104Z,49
2023-01-08T22:42:21.881Z,49
2023-01-08T22:44:01.633Z,49
2023-01-08T22:45:41.387Z,49
2023-01-08T22:47:21.159Z,50
2023-01-08T22:49:00.925Z,50
2023-01-08T22:50:40.691Z,50
2023-01-08T22:52:20.440Z,50
2023-01-08T22:54:00.237Z,50
2023-01-08T22:55:39.981Z,49
2023-01-08T22:57:19.740Z,50
2023-01-08T22:58:59.522Z,49
2023-01-08T23:00:39.315Z,49
2023-01-08T23:02:19.028Z,49
2023-01-08T23:03:58.795Z,49
2023-01-08T23:05:38.563Z,49
2023-01-08T23:07:18.329Z,49
2023-01-08T23:08:58.121Z,49
2023-01-08T23:10:37.857Z,49
2023-01-08T23:12:17.616Z,49
2023-01-08T23:13:57.387Z,49
2023-01-08T23:15:37.154Z,49
2023-01-08T23:17:16.916Z,49
2023-01-08T23:18:56.666Z,49
2023-01-08T23:20:36.434Z,49
2023-01-08T23:22:16.220Z,49
2023-01-08T23:23:55.965Z,49
2023-01-08T23:25:35.732Z,49
2023-01-08T23:27:15.502Z,49
2023-01-08T23:28:55.245Z,49
2023-01-08T23:30:35.033Z,49
2023-01-08T23:33:54.554Z,49
2023-01-08T23:35:34.317Z,49
2023-01-08T23:37:14.069Z,49
2023-01-08T23:40:33.613Z,49
2023-01-08T23:42:13.360Z,49
2023-01-08T23:43:53.141Z,49
2023-01-08T23:45:32.906Z,49
2023-01-08T23:47:12.654Z,49
2023-01-08T23:48:52.440Z,49
2023-01-08T23:50:32.171Z,49
2023-01-08T23:52:11.941Z,49
2023-01-08T23:53:51.718Z,49
2023-01-08T23:55:31.470Z,49
2023-01-08T23:57:11.288Z,49
2023-01-08T23:58:51.006Z,49
